Ana Sayfa
METAR-TAF:

METAR-TAF

Havaalanları :

Fort-de-France, Martinique

Enlem: 14-36N, Boylam: 061-00W, yükseklik: 5 m

Güncel hava durumu gözlemi

Rapor saat 11:00 UTC de 23 dakika önce yapıldı.
Rüzgar doğu/kuzeydoğudan 5 kt
Sıcaklık 23°C
Nem 83%
Basınç 1018 hPa
Görüş mesafesi 10 km veya daha fazla

METAR: TFFF 101100Z AUTO 06005KT 9999 FEW035/// BKN110/// ///TCU 23/20 Q1018 BECMG SCT030

Saat: 07:23 (11:23 UTC)

Tahmin

Rapor saat 05:00 UTC de 6 saat ve 23 dakika önce yapıldı.
Ayın 10'si saat 06 UTC'den ayın 11'si saat 06 UTC'ye kadar geçerli Tahmin
Rüzgar doğudan 8 kt
Görüş mesafesi 10 km veya daha fazla
3000 ft yükseklikte parçalı bulutlu

TAF: TFFF 100500Z 1006/1106 10008KT 9999 SCT030

4.000'den fazla havaalanı için hava durumu gözlemleri ve tahminleri (METAR ve TAF raporları).

Kullanılabilir istasyonlar harita üzerinde sarı ve kırmızı noktalarla gösterilir.

İstasyonun adını görmek için fareyi noktanın üzerinde gezdirin.

Sonrasında hava gözlem ve tahminlerini görmek için tıklayın.

Haritayı değiştirmek için: yaklaştırmak için siyah artı işaretli yeşil düğmeye ve uzaklaştırmak için de eksi işaretli düğmeye hızla tıklayın; bitişik haritalar için yeşil okları kullanın.


METAR-TAF: